Hauptseite
METAR-TAF:

METAR-TAF

Flughäfen :

Shanghai-Pudong, China

Shanghai Pudong International Airport

Breite: 31-07N, Länge: 121-46E, Höhe: 4 m

Beobachtung

Neuester Wetterbericht von vor 37 Minuten, um 18:30 UTC
Wind 10 kt aus Süd/Südost
Temperatur 20°C
Luftfeuchtigkeit 94%
Luftdruck 1011 hPa
Sichtweite 10 km oder mehr
keine Wolken unter 1500 m und keine Kumulonimbus oder Gewitterwolken

METAR: ZSPD 291830Z 15005MPS CAVOK 20/19 Q1011 NOSIG

Zeit: 03:07 (19:07 UTC)

Prognose

Neuester Wetterbericht von vor 3 Stunden und 49 Minuten, um 15:18 UTC
Gültige Prognose vom 29 um 18 UTC bis 30 um 18 UTC
Wind 8 kt aus Südost
Sichtweite: 5000 m
Aufgelockert bewölkt in der Höhe von 2000 ft
feuchter Dunst

TAF: ZSPD 291518Z 2918/3018 14004MPS 5000 BR SCT020 TX31/3006Z TN18/2920Z

Wetterbeobachtungen und Prognosen von mehr als 4000 Flughäfen (METAR und TAF Bericht).

Die verfügbaren Stationen werden durch gelbe und rote Markierungen auf der Karte dargestellt.

Führen Sie die Maus auf sie, um den Namen der Station zu sehen.

Darauf klicken, um die Beobachtung von Wetterbeobachtungen und Prognosen zu sehen.

Um die Karte zu ändern : klicken Sie auf den grünen Tasten mit einem schwarzen Kreuz Zum Vergrößern, auf den grünen Button mit einem Gedankenstrich zu verkleinern, oder auf die grünen Pfeile für benachbarte Karten.


METAR-TAF: